Primrose, NE

5:59 AM CDT on July 17, 2019 (GMT -0500)
300th AVE 200th ST | | Change Station
Active Advisory: Excessive Heat Warning

Elev 1910 ft 41.63 °N, 98.10 °W | Updated 6 seconds ago

Clear
Clear
71.4 °F
Feels Like 71.4 °F
N
1.3
Wind Variable Wind from ESE
Gusts 2.2 mph

Today
High -- | Low -- °F
--% Chance of Precip.
Yesterday
High -- | Low -- °F
Precip. -- in
Pressure 29.81 in
Visibility 10.0 miles
Clouds Clear
Dew Point 71 °F
Humidity 99%
Rainfall 0.00 in
Snow Depth Not available.
6:13 AM 9:04 PM
Full, 100% visible
METAR KBVN 171035Z AUTO 13005KT 10SM CLR 23/23 A2981 RMK AO2 LTG DSNT N T02330225
Pressure 29.81 in
Visibility 10.0 miles
Clouds Clear
Dew Point 71 °F
Humidity 99%
Rainfall 0.00 in
Snow Depth Not available.
6:13 AM 9:04 PM
Full, 100% visible
METAR KBVN 171035Z AUTO 13005KT 10SM CLR 23/23 A2981 RMK AO2 LTG DSNT N T02330225

Get Your Daily Forecast Email!

Thanks for signing up!

Be on the lookout for a verification email in your inbox.

You'll start receiving severe weather alerts in your inbox..

×

10-Day Weather Forecast

Almanac

Astronomy

Jul. 17, 2019 Rise Set
Actual Time
Civil Twilight
Nautical Twilight
Astronomical Twilight
Moon
Length of Visible Light
Length of Day
Tomorrow will be .
, % of the Moon is Illuminated

Today's Extremes

State Highs State Lows

Community

WunderPhotos

Category 6

Welcome to Category 6. This is the collective home for Weather Underground's featured writeups by Dr. Jeff Masters (right), Bob Henson (left), Chris Burt, and other regular contributors.

Nearby

Air Quality

  Air Quality AQ Index Pollutant
Not available.

Snow Depth

Station Depth Elevation

Earthquake Activity

City Distance Mag. Time & Date
Minimum magnitude displayed is 2.5.

Coastal Water Temperatures

Place Temperature

Stations

Nearby Weather Stations

Station Location Temp. Windchill Dew Point Humidity Wind Precip. Elev Updated Type
                   

Watches & Warnings

Excessive Heat Warning
Issued: 3:48 AM CDT Jul. 17, 2019 – National Weather Service

... Excessive heat warning now in effect from 1 PM this afternoon
to 10 PM CDT Friday...

* heat index values... up to 110 due to temperatures in the mid and upper
90s, and dewpoints in the lower 70s.

* Timing... 1 PM this afternoon to 10 PM Friday.

* Impacts... dangerously high temperatures and humidity could
quickly cause heat stress or heat stroke if precautions are
not taken.

Precautionary/preparedness actions...

An excessive heat warning means that a prolonged period of
dangerously hot temperatures will occur. The combination of hot
temperatures and high humidity will create a dangerous situation
in which heat illnesses are likely. Drink plenty of fluids, stay
in an air-conditioned room, stay out of the sun, and check up on
relatives and neighbors.



Zapotocny